Startpagina
METAR-TAF:

METAR-TAF

Vliegvelden :

Vliegveld Craiova

Craiova, Roemenië

breedte: 44-14N, lengte: 023-52E, hoogte: 192 m

Actueel weer

Dit bericht is 18 minuten geleden gemaakt, om 18:00 UTC
Wind 3 kt uit het oostnoordoosten
Temperatuur 6°C
Vochtigheid 81%
Druk 1029 hPa
Zicht: 7000 m

METAR: LRCV 121800Z 06003KT 7000 NSC 06/03 Q1029

Tijdstip: 20:18 (18:18 UTC)

Verwachting

Dit bericht is 1 uur en het 18 minuten geleden gemaakt, om 17:00 UTC
Verwachting geldig van 12 om 18 UTC tot 13 om 03 UTC
Wind 5 kt uit het oosten
Zicht: 7000 m
Wijzigt naar
van 12 om 21 UTC tot 12 om 23 UTC
Zicht: 3000 m
nevel
Wijzigt naar
van 12 om 23 UTC tot 13 om 01 UTC
Zicht: 1500 m
Gebroken wolken op 500 ft
nevel
Kans 40% :
Tijdelijke
van 13 om 01 UTC tot 13 om 03 UTC
Zicht: 0800 m
Gebroken wolken op 200 ft
mist

TAF: LRCV 121700Z 1218/1303 09005KT 7000 NSC BECMG 1221/1223 3000 BR BECMG 1223/1301 1500 BR BKN005 PROB40 TEMPO 1301/1303 0800 FG BKN002

Waarnemingen en weersverwachtingen van meer dan 4000 vliegvelden (METAR en TAF).

De beschikbare stations zijn de gele en rode punten op de kaart.

Ga met uw muis naar het station om de naam te zien.

Klik dan om waarnemingen en weersverwachtingen te zien.

kaart wijzigen: klik op de groene knoppen met een zwart kruis om in te zoomen, op de groene knop met een streepje om uit te zoomen of op de groene pijlen voor aangrenzende kaarten.


METAR-TAF: